sensor_id;sensor_type;location;lat;lon;timestamp;temperature;humidity
63383;DHT22;49512;48.744;9.176;2022-08-19T00:00:14;20.40;77.60
63383;DHT22;49512;48.744;9.176;2022-08-19T00:02:41;20.40;78.10
63383;DHT22;49512;48.744;9.176;2022-08-19T00:05:06;20.40;78.40
63383;DHT22;49512;48.744;9.176;2022-08-19T00:07:35;20.50;78.00
63383;DHT22;49512;48.744;9.176;2022-08-19T00:10:01;20.40;78.50
63383;DHT22;49512;48.744;9.176;2022-08-19T00:12:26;20.40;79.00
63383;DHT22;49512;48.744;9.176;2022-08-19T00:14:52;20.30;79.20
63383;DHT22;49512;48.744;9.176;2022-08-19T00:17:19;20.30;78.70
63383;DHT22;49512;48.744;9.176;2022-08-19T00:19:45;20.40;77.90
63383;DHT22;49512;48.744;9.176;2022-08-19T00:22:10;20.40;78.90
63383;DHT22;49512;48.744;9.176;2022-08-19T00:24:36;20.30;78.70
63383;DHT22;49512;48.744;9.176;2022-08-19T00:27:03;20.40;78.90
63383;DHT22;49512;48.744;9.176;2022-08-19T00:29:29;20.30;79.10
63383;DHT22;49512;48.744;9.176;2022-08-19T00:31:55;20.30;80.00
63383;DHT22;49512;48.744;9.176;2022-08-19T00:34:23;20.30;79.30
63383;DHT22;49512;48.744;9.176;2022-08-19T00:36:48;20.30;79.30
63383;DHT22;49512;48.744;9.176;2022-08-19T00:39:17;20.20;79.50
63383;DHT22;49512;48.744;9.176;2022-08-19T00:41:43;20.20;80.20
63383;DHT22;49512;48.744;9.176;2022-08-19T00:44:14;20.20;79.70
63383;DHT22;49512;48.744;9.176;2022-08-19T00:46:41;20.30;80.10
63383;DHT22;49512;48.744;9.176;2022-08-19T00:49:09;20.30;79.50
63383;DHT22;49512;48.744;9.176;2022-08-19T00:51:36;20.20;80.80
63383;DHT22;49512;48.744;9.176;2022-08-19T00:54:02;20.20;80.80
63383;DHT22;49512;48.744;9.176;2022-08-19T00:56:27;20.20;81.80
63383;DHT22;49512;48.744;9.176;2022-08-19T00:58:54;20.20;81.50
63383;DHT22;49512;48.744;9.176;2022-08-19T01:01:21;20.10;80.50
63383;DHT22;49512;48.744;9.176;2022-08-19T01:03:46;20.10;83.40
63383;DHT22;49512;48.744;9.176;2022-08-19T01:06:12;20.10;84.30
63383;DHT22;49512;48.744;9.176;2022-08-19T01:08:38;19.90;84.50
63383;DHT22;49512;48.744;9.176;2022-08-19T01:11:03;20.00;85.00
63383;DHT22;49512;48.744;9.176;2022-08-19T01:13:30;20.00;84.00
63383;DHT22;49512;48.744;9.176;2022-08-19T01:16:01;20.00;84.50
63383;DHT22;49512;48.744;9.176;2022-08-19T01:18:27;20.00;84.20
63383;DHT22;49512;48.744;9.176;2022-08-19T01:20:54;20.10;82.40
63383;DHT22;49512;48.744;9.176;2022-08-19T01:23:21;20.00;84.10
63383;DHT22;49512;48.744;9.176;2022-08-19T01:25:51;19.90;83.90
63383;DHT22;49512;48.744;9.176;2022-08-19T01:28:21;19.90;83.50
63383;DHT22;49512;48.744;9.176;2022-08-19T01:30:46;20.00;81.90
63383;DHT22;49512;48.744;9.176;2022-08-19T01:33:13;20.00;83.20
63383;DHT22;49512;48.744;9.176;2022-08-19T01:35:38;20.00;83.20
63383;DHT22;49512;48.744;9.176;2022-08-19T01:38:05;20.00;83.50
63383;DHT22;49512;48.744;9.176;2022-08-19T01:40:33;20.00;83.40
63383;DHT22;49512;48.744;9.176;2022-08-19T01:43:00;20.00;83.30
63383;DHT22;49512;48.744;9.176;2022-08-19T01:45:26;19.90;83.60
63383;DHT22;49512;48.744;9.176;2022-08-19T01:47:52;20.00;83.80
63383;DHT22;49512;48.744;9.176;2022-08-19T01:50:17;20.00;83.40
63383;DHT22;49512;48.744;9.176;2022-08-19T01:52:43;20.00;82.90
63383;DHT22;49512;48.744;9.176;2022-08-19T01:55:11;19.90;83.80
63383;DHT22;49512;48.744;9.176;2022-08-19T01:57:39;19.90;83.30
63383;DHT22;49512;48.744;9.176;2022-08-19T02:00:10;19.90;83.10
63383;DHT22;49512;48.744;9.176;2022-08-19T02:02:35;19.90;83.60
63383;DHT22;49512;48.744;9.176;2022-08-19T02:05:01;19.90;84.20
63383;DHT22;49512;48.744;9.176;2022-08-19T02:07:26;19.80;84.00
63383;DHT22;49512;48.744;9.176;2022-08-19T02:09:54;19.90;84.60
63383;DHT22;49512;48.744;9.176;2022-08-19T02:12:20;19.90;84.80
63383;DHT22;49512;48.744;9.176;2022-08-19T02:14:46;19.90;85.00
63383;DHT22;49512;48.744;9.176;2022-08-19T02:17:11;19.80;85.10
63383;DHT22;49512;48.744;9.176;2022-08-19T02:19:37;19.80;85.00
63383;DHT22;49512;48.744;9.176;2022-08-19T02:22:03;19.80;85.80
63383;DHT22;49512;48.744;9.176;2022-08-19T02:24:29;19.80;85.50
63383;DHT22;49512;48.744;9.176;2022-08-19T02:26:54;19.70;85.40
63383;DHT22;49512;48.744;9.176;2022-08-19T02:29:20;19.70;86.30
63383;DHT22;49512;48.744;9.176;2022-08-19T02:31:46;19.60;86.80
63383;DHT22;49512;48.744;9.176;2022-08-19T02:34:11;19.70;86.80
63383;DHT22;49512;48.744;9.176;2022-08-19T02:36:37;19.60;86.30
63383;DHT22;49512;48.744;9.176;2022-08-19T02:39:02;19.70;86.20
63383;DHT22;49512;48.744;9.176;2022-08-19T02:41:30;19.60;86.30
63383;DHT22;49512;48.744;9.176;2022-08-19T02:43:56;19.60;87.10
63383;DHT22;49512;48.744;9.176;2022-08-19T02:46:24;19.60;87.00
63383;DHT22;49512;48.744;9.176;2022-08-19T02:48:54;19.70;87.10
63383;DHT22;49512;48.744;9.176;2022-08-19T02:51:21;19.60;86.70
63383;DHT22;49512;48.744;9.176;2022-08-19T02:53:47;19.70;86.80
63383;DHT22;49512;48.744;9.176;2022-08-19T02:56:15;19.70;86.80
63383;DHT22;49512;48.744;9.176;2022-08-19T02:58:41;19.60;87.40
63383;DHT22;49512;48.744;9.176;2022-08-19T03:01:07;19.60;87.20
63383;DHT22;49512;48.744;9.176;2022-08-19T03:03:32;19.60;88.00
63383;DHT22;49512;48.744;9.176;2022-08-19T03:06:05;19.50;89.10
63383;DHT22;49512;48.744;9.176;2022-08-19T03:08:31;19.60;89.40
63383;DHT22;49512;48.744;9.176;2022-08-19T03:11:00;19.40;90.20
63383;DHT22;49512;48.744;9.176;2022-08-19T03:13:25;19.30;91.10
63383;DHT22;49512;48.744;9.176;2022-08-19T03:15:51;19.30;91.00
63383;DHT22;49512;48.744;9.176;2022-08-19T03:18:16;19.30;91.30
63383;DHT22;49512;48.744;9.176;2022-08-19T03:20:42;19.20;91.60
63383;DHT22;49512;48.744;9.176;2022-08-19T03:23:08;19.10;91.80
63383;DHT22;49512;48.744;9.176;2022-08-19T03:25:38;19.20;91.60
63383;DHT22;49512;48.744;9.176;2022-08-19T03:28:05;19.10;91.50
63383;DHT22;49512;48.744;9.176;2022-08-19T03:30:31;19.10;92.10
63383;DHT22;49512;48.744;9.176;2022-08-19T03:32:57;19.20;91.50
63383;DHT22;49512;48.744;9.176;2022-08-19T03:35:22;19.10;91.30
63383;DHT22;49512;48.744;9.176;2022-08-19T03:37:48;19.20;91.30
63383;DHT22;49512;48.744;9.176;2022-08-19T03:40:13;19.00;91.60
63383;DHT22;49512;48.744;9.176;2022-08-19T03:42:39;19.10;91.50
63383;DHT22;49512;48.744;9.176;2022-08-19T03:45:07;19.20;91.30
63383;DHT22;49512;48.744;9.176;2022-08-19T03:47:33;19.00;91.70
63383;DHT22;49512;48.744;9.176;2022-08-19T03:49:58;19.10;91.60
63383;DHT22;49512;48.744;9.176;2022-08-19T03:52:24;19.20;91.20
63383;DHT22;49512;48.744;9.176;2022-08-19T03:54:49;19.20;91.00
63383;DHT22;49512;48.744;9.176;2022-08-19T03:57:15;19.10;91.50
63383;DHT22;49512;48.744;9.176;2022-08-19T03:59:40;19.10;91.30
63383;DHT22;49512;48.744;9.176;2022-08-19T04:02:08;19.00;91.70
63383;DHT22;49512;48.744;9.176;2022-08-19T04:04:34;19.00;91.80
63383;DHT22;49512;48.744;9.176;2022-08-19T04:07:00;19.00;91.70
63383;DHT22;49512;48.744;9.176;2022-08-19T04:09:26;19.00;91.50
63383;DHT22;49512;48.744;9.176;2022-08-19T04:11:52;19.00;91.80
63383;DHT22;49512;48.744;9.176;2022-08-19T04:14:20;19.00;91.90
63383;DHT22;49512;48.744;9.176;2022-08-19T04:16:46;19.00;92.10
63383;DHT22;49512;48.744;9.176;2022-08-19T04:19:12;18.90;91.80
63383;DHT22;49512;48.744;9.176;2022-08-19T04:21:38;18.90;92.10
63383;DHT22;49512;48.744;9.176;2022-08-19T04:24:03;19.00;91.60
63383;DHT22;49512;48.744;9.176;2022-08-19T04:26:30;19.00;91.70
63383;DHT22;49512;48.744;9.176;2022-08-19T04:29:00;19.00;91.70
63383;DHT22;49512;48.744;9.176;2022-08-19T04:31:30;18.90;91.70
63383;DHT22;49512;48.744;9.176;2022-08-19T04:33:56;19.00;91.70
63383;DHT22;49512;48.744;9.176;2022-08-19T04:36:24;18.90;91.80
63383;DHT22;49512;48.744;9.176;2022-08-19T04:38:50;18.90;91.90
63383;DHT22;49512;48.744;9.176;2022-08-19T04:41:17;18.90;91.70
63383;DHT22;49512;48.744;9.176;2022-08-19T04:44:02;18.90;91.80
63383;DHT22;49512;48.744;9.176;2022-08-19T04:46:28;18.90;91.90
63383;DHT22;49512;48.744;9.176;2022-08-19T04:48:55;18.80;92.20
63383;DHT22;49512;48.744;9.176;2022-08-19T04:51:22;18.80;92.00
63383;DHT22;49512;48.744;9.176;2022-08-19T04:53:47;18.90;92.20
63383;DHT22;49512;48.744;9.176;2022-08-19T04:56:13;19.10;91.80
63383;DHT22;49512;48.744;9.176;2022-08-19T04:58:40;19.00;91.70
63383;DHT22;49512;48.744;9.176;2022-08-19T05:01:08;19.00;91.30
63383;DHT22;49512;48.744;9.176;2022-08-19T05:03:34;19.00;91.50
63383;DHT22;49512;48.744;9.176;2022-08-19T05:06:06;19.10;91.60
63383;DHT22;49512;48.744;9.176;2022-08-19T05:08:33;19.00;91.60
63383;DHT22;49512;48.744;9.176;2022-08-19T05:10:59;19.00;91.30
63383;DHT22;49512;48.744;9.176;2022-08-19T05:13:24;19.10;91.50
63383;DHT22;49512;48.744;9.176;2022-08-19T05:15:54;19.10;91.50
63383;DHT22;49512;48.744;9.176;2022-08-19T05:18:20;19.00;91.60
63383;DHT22;49512;48.744;9.176;2022-08-19T05:21:11;19.10;91.10
63383;DHT22;49512;48.744;9.176;2022-08-19T05:23:55;19.10;91.40
63383;DHT22;49512;48.744;9.176;2022-08-19T05:26:21;19.10;91.50
63383;DHT22;49512;48.744;9.176;2022-08-19T05:28:47;19.10;91.60
63383;DHT22;49512;48.744;9.176;2022-08-19T05:31:12;19.20;91.40
63383;DHT22;49512;48.744;9.176;2022-08-19T05:33:38;19.20;91.30
63383;DHT22;49512;48.744;9.176;2022-08-19T05:36:05;19.20;91.50
63383;DHT22;49512;48.744;9.176;2022-08-19T05:38:33;19.20;91.50
63383;DHT22;49512;48.744;9.176;2022-08-19T05:40:58;19.20;90.90
63383;DHT22;49512;48.744;9.176;2022-08-19T05:43:23;19.30;90.90
63383;DHT22;49512;48.744;9.176;2022-08-19T05:45:49;19.20;91.00
63383;DHT22;49512;48.744;9.176;2022-08-19T05:48:15;19.10;92.00
63383;DHT22;49512;48.744;9.176;2022-08-19T05:50:45;19.20;91.30
63383;DHT22;49512;48.744;9.176;2022-08-19T05:53:12;19.30;91.40
63383;DHT22;49512;48.744;9.176;2022-08-19T05:55:37;19.20;91.50
63383;DHT22;49512;48.744;9.176;2022-08-19T05:58:04;19.20;91.30
63383;DHT22;49512;48.744;9.176;2022-08-19T06:00:33;19.20;91.80
63383;DHT22;49512;48.744;9.176;2022-08-19T06:02:58;19.20;91.10
63383;DHT22;49512;48.744;9.176;2022-08-19T06:05:31;19.40;90.90
63383;DHT22;49512;48.744;9.176;2022-08-19T06:07:57;19.40;90.50
63383;DHT22;49512;48.744;9.176;2022-08-19T06:10:24;19.30;90.80
63383;DHT22;49512;48.744;9.176;2022-08-19T06:12:49;19.30;91.30
63383;DHT22;49512;48.744;9.176;2022-08-19T06:15:15;19.40;90.90
63383;DHT22;49512;48.744;9.176;2022-08-19T06:17:41;19.30;91.20
63383;DHT22;49512;48.744;9.176;2022-08-19T06:20:10;19.30;90.50
63383;DHT22;49512;48.744;9.176;2022-08-19T06:22:41;19.30;91.10
63383;DHT22;49512;48.744;9.176;2022-08-19T06:25:07;19.30;91.30
63383;DHT22;49512;48.744;9.176;2022-08-19T06:27:34;19.30;91.20
63383;DHT22;49512;48.744;9.176;2022-08-19T06:30:00;19.10;91.80
63383;DHT22;49512;48.744;9.176;2022-08-19T06:32:26;19.30;91.60
63383;DHT22;49512;48.744;9.176;2022-08-19T06:34:51;19.20;91.60
63383;DHT22;49512;48.744;9.176;2022-08-19T06:37:17;19.20;92.10
63383;DHT22;49512;48.744;9.176;2022-08-19T06:39:43;19.10;92.60
63383;DHT22;49512;48.744;9.176;2022-08-19T06:42:09;19.10;93.00
63383;DHT22;49512;48.744;9.176;2022-08-19T06:44:37;19.00;93.70
63383;DHT22;49512;48.744;9.176;2022-08-19T06:47:04;19.10;94.50
63383;DHT22;49512;48.744;9.176;2022-08-19T06:49:30;19.00;94.80
63383;DHT22;49512;48.744;9.176;2022-08-19T06:51:59;19.00;95.00
63383;DHT22;49512;48.744;9.176;2022-08-19T06:54:25;18.90;95.40
63383;DHT22;49512;48.744;9.176;2022-08-19T06:56:51;18.90;95.20
63383;DHT22;49512;48.744;9.176;2022-08-19T06:59:18;18.90;95.00
63383;DHT22;49512;48.744;9.176;2022-08-19T07:01:45;18.90;95.30
63383;DHT22;49512;48.744;9.176;2022-08-19T07:04:15;18.90;95.40
63383;DHT22;49512;48.744;9.176;2022-08-19T07:06:42;18.80;95.60
63383;DHT22;49512;48.744;9.176;2022-08-19T07:09:10;18.90;95.70
63383;DHT22;49512;48.744;9.176;2022-08-19T07:11:38;18.80;95.20
63383;DHT22;49512;48.744;9.176;2022-08-19T07:14:04;18.90;95.80
63383;DHT22;49512;48.744;9.176;2022-08-19T07:16:31;18.80;95.80
63383;DHT22;49512;48.744;9.176;2022-08-19T07:18:57;18.90;95.70
63383;DHT22;49512;48.744;9.176;2022-08-19T07:21:26;18.80;95.10
63383;DHT22;49512;48.744;9.176;2022-08-19T07:23:58;18.90;95.10
63383;DHT22;49512;48.744;9.176;2022-08-19T07:26:29;18.90;95.10
63383;DHT22;49512;48.744;9.176;2022-08-19T07:28:55;18.90;95.80
63383;DHT22;49512;48.744;9.176;2022-08-19T07:31:22;18.80;95.40
63383;DHT22;49512;48.744;9.176;2022-08-19T07:33:49;18.90;95.80
63383;DHT22;49512;48.744;9.176;2022-08-19T07:36:16;18.90;96.30
63383;DHT22;49512;48.744;9.176;2022-08-19T07:38:42;18.80;96.00
63383;DHT22;49512;48.744;9.176;2022-08-19T07:41:09;18.80;96.40
63383;DHT22;49512;48.744;9.176;2022-08-19T07:43:36;18.90;95.00
63383;DHT22;49512;48.744;9.176;2022-08-19T07:46:02;18.90;95.60
63383;DHT22;49512;48.744;9.176;2022-08-19T07:48:27;18.90;95.80
63383;DHT22;49512;48.744;9.176;2022-08-19T07:50:54;18.90;95.30
63383;DHT22;49512;48.744;9.176;2022-08-19T07:53:21;18.90;95.00
63383;DHT22;49512;48.744;9.176;2022-08-19T07:55:47;18.90;95.70
63383;DHT22;49512;48.744;9.176;2022-08-19T07:58:13;18.90;96.00
63383;DHT22;49512;48.744;9.176;2022-08-19T08:00:40;18.90;96.20
63383;DHT22;49512;48.744;9.176;2022-08-19T08:03:05;18.80;96.00
63383;DHT22;49512;48.744;9.176;2022-08-19T08:05:31;18.80;96.40
63383;DHT22;49512;48.744;9.176;2022-08-19T08:08:15;18.80;95.80
63383;DHT22;49512;48.744;9.176;2022-08-19T08:11:07;18.80;96.60
63383;DHT22;49512;48.744;9.176;2022-08-19T08:13:32;18.80;97.10
63383;DHT22;49512;48.744;9.176;2022-08-19T08:16:00;18.80;96.60
63383;DHT22;49512;48.744;9.176;2022-08-19T08:18:26;18.80;96.80
63383;DHT22;49512;48.744;9.176;2022-08-19T08:20:52;18.70;96.10
63383;DHT22;49512;48.744;9.176;2022-08-19T08:23:17;18.70;96.90
63383;DHT22;49512;48.744;9.176;2022-08-19T08:25:54;18.70;96.80
63383;DHT22;49512;48.744;9.176;2022-08-19T08:28:20;18.60;99.50
63383;DHT22;49512;48.744;9.176;2022-08-19T08:30:46;18.60;98.80
63383;DHT22;49512;48.744;9.176;2022-08-19T08:33:13;18.50;99.40
63383;DHT22;49512;48.744;9.176;2022-08-19T08:35:39;18.60;98.30
63383;DHT22;49512;48.744;9.176;2022-08-19T08:38:07;18.60;98.60
63383;DHT22;49512;48.744;9.176;2022-08-19T08:45:41;18.70;98.70
63383;DHT22;49512;48.744;9.176;2022-08-19T08:48:13;18.60;98.50
63383;DHT22;49512;48.744;9.176;2022-08-19T08:50:41;18.50;99.90
63383;DHT22;49512;48.744;9.176;2022-08-19T08:53:08;18.60;99.90
63383;DHT22;49512;48.744;9.176;2022-08-19T08:55:35;18.70;99.90
63383;DHT22;49512;48.744;9.176;2022-08-19T08:58:03;18.70;99.70
63383;DHT22;49512;48.744;9.176;2022-08-19T09:00:38;18.90;98.60
63383;DHT22;49512;48.744;9.176;2022-08-19T09:03:06;18.90;99.30
63383;DHT22;49512;48.744;9.176;2022-08-19T09:05:38;19.00;98.90
63383;DHT22;49512;48.744;9.176;2022-08-19T09:08:13;18.90;98.10
63383;DHT22;49512;48.744;9.176;2022-08-19T09:10:46;18.90;98.50
63383;DHT22;49512;48.744;9.176;2022-08-19T09:15:43;19.00;98.90
63383;DHT22;49512;48.744;9.176;2022-08-19T09:18:10;19.10;98.60
63383;DHT22;49512;48.744;9.176;2022-08-19T09:20:35;19.00;98.30
63383;DHT22;49512;48.744;9.176;2022-08-19T09:23:01;19.10;99.40
63383;DHT22;49512;48.744;9.176;2022-08-19T09:25:26;19.00;98.90
63383;DHT22;49512;48.744;9.176;2022-08-19T09:27:52;19.00;99.90
63383;DHT22;49512;48.744;9.176;2022-08-19T09:30:20;19.20;97.90
63383;DHT22;49512;48.744;9.176;2022-08-19T09:32:47;19.10;99.20
63383;DHT22;49512;48.744;9.176;2022-08-19T09:35:13;19.20;97.30
63383;DHT22;49512;48.744;9.176;2022-08-19T09:37:39;19.20;97.80
63383;DHT22;49512;48.744;9.176;2022-08-19T09:40:05;19.30;96.90
63383;DHT22;49512;48.744;9.176;2022-08-19T09:42:32;19.40;97.50
63383;DHT22;49512;48.744;9.176;2022-08-19T09:44:59;19.40;96.70
63383;DHT22;49512;48.744;9.176;2022-08-19T09:47:24;19.40;96.50
63383;DHT22;49512;48.744;9.176;2022-08-19T09:49:50;19.50;97.30
63383;DHT22;49512;48.744;9.176;2022-08-19T09:52:15;19.40;97.60
63383;DHT22;49512;48.744;9.176;2022-08-19T09:54:41;19.40;97.30
63383;DHT22;49512;48.744;9.176;2022-08-19T09:57:07;19.50;97.00
63383;DHT22;49512;48.744;9.176;2022-08-19T09:59:33;19.60;95.80
63383;DHT22;49512;48.744;9.176;2022-08-19T10:01:58;19.70;96.30
63383;DHT22;49512;48.744;9.176;2022-08-19T10:04:24;19.60;95.70
63383;DHT22;49512;48.744;9.176;2022-08-19T10:07:09;19.70;96.20
63383;DHT22;49512;48.744;9.176;2022-08-19T10:09:35;19.70;96.50
